P&o Nedlloyd Pantanal — DDIZ — position and weather

sailwx.info

Track history (hours):
 
Tides and Currents Weather Stations Pressure Air Temp Water Temp Dewpoint Dewpoint Depression Visibility Wind Speed Wind Dir Waves Ship Positions

P&o Nedlloyd Pantanal

Last reported at 2016-Aug-17 03:26 UTC. Time now 2016-Sep-25 02:01 UTC.
Position N 01°39' E 102°56'.
Warning: this ship's position is 38 days out of date.

Length 207 m; draft 10.9 m.

Type: Ship (hazmat cat A). MMSI: 218646000.

Date/timePositionNaut miles runAvg speedWind from/ knotsBaromVisibWave heightAir tempDewpointWater temp
2016-Aug-17 03:26N 01°39' E 102°56'5614.5
2016-Aug-16 23:33N 01°08' E 103°43'1212.3
2016-Aug-16 22:33N 01°13' E 103°54'2 1.6
2016-Aug-16 21:33N 01°15' E 103°53'0 0.1
2016-Aug-16 20:27N 01°15' E 103°53'0 0.0
2016-Aug-16 19:33N 01°15' E 103°53'0 0.1
2016-Aug-16 18:33N 01°15' E 103°53'0 0.1
2016-Aug-16 17:33N 01°15' E 103°53'0 0.0
2016-Aug-16 16:32N 01°15' E 103°53'0 0.0
2016-Aug-16 15:32N 01°15' E 103°53'1 0.9
2016-Aug-16 14:33N 01°14' E 103°53'4 3.9
2016-Aug-16 13:34N 01°13' E 103°49'0 0.0
2016-Aug-16 12:34N 01°13' E 103°49'0 0.2
2016-Aug-16 11:33N 01°13' E 103°49'0 0.1
2016-Aug-16 10:32N 01°13' E 103°49'0 0.1
2016-Aug-16 09:33N 01°13' E 103°49'0 0.0
2016-Aug-16 08:33N 01°13' E 103°49'3 3.2
2016-Aug-16 07:33N 01°13' E 103°52'  
Track history (hours):
 
Tides and Currents Weather Stations Pressure Air Temp Water Temp Dewpoint Dewpoint Depression Visibility Wind Speed Wind Dir Waves Ship Positions

P&o Nedlloyd Pantanal

Last reported at 2016-Aug-17 03:26 UTC. Time now 2016-Sep-25 02:01 UTC.
Position N 01°39' E 102°56'.
Warning: this ship's position is 38 days out of date.

Length 207 m; draft 10.9 m.

Type: Ship (hazmat cat A). MMSI: 218646000.

Date/timePositionNaut miles runAvg speedWind from/ knotsBaromVisibWave heightAir tempDewpointWater temp
2016-Aug-17 03:26N 01°39' E 102°56'5614.5
2016-Aug-16 23:33N 01°08' E 103°43'1212.3
2016-Aug-16 22:33N 01°13' E 103°54'2 1.6
2016-Aug-16 21:33N 01°15' E 103°53'0 0.1
2016-Aug-16 20:27N 01°15' E 103°53'0 0.0
2016-Aug-16 19:33N 01°15' E 103°53'0 0.1
2016-Aug-16 18:33N 01°15' E 103°53'0 0.1
2016-Aug-16 17:33N 01°15' E 103°53'0 0.0
2016-Aug-16 16:32N 01°15' E 103°53'0 0.0
2016-Aug-16 15:32N 01°15' E 103°53'1 0.9
2016-Aug-16 14:33N 01°14' E 103°53'4 3.9
2016-Aug-16 13:34N 01°13' E 103°49'0 0.0
2016-Aug-16 12:34N 01°13' E 103°49'0 0.2
2016-Aug-16 11:33N 01°13' E 103°49'0 0.1
2016-Aug-16 10:32N 01°13' E 103°49'0 0.1
2016-Aug-16 09:33N 01°13' E 103°49'0 0.0
2016-Aug-16 08:33N 01°13' E 103°49'3 3.2
2016-Aug-16 07:33N 01°13' E 103°52'  

Dump ship's entire track history